Malmquist flyger

Njuter av att få uppleva världen uppifrån

No flight due to icing conditions…

Nä det blev ingen flygning idag heller. Låga moln, mycket fukt i luften, snöblandat regn och nollan på 1000ft. Då blev det till stanna nere…

TAF:

TAF ESMS 180510Z 1806/1906 22012KT 6000 -RADZ BKN006
         TEMPO 1806/1810 1500 RASN BKN002
         BECMG 1810/1813 33015KT SCT030
         TEMPO 1813/1816 31015G25KT SCT020CB
         BECMG 1822/1824 29008KT
         TEMPO 1902/1906 2500 BR=

Dagens väder ledde dock till att en premiär blev begången, nämligen att ringa meteorologen på Arlanda. Har inte direkt varit i behov av det tidigare och ärligt talat så har man väl dragit sig lite för det också. Känns lite onödigt. Men så ska man inte tänka, de finns där för oss!

Ett trevlig samtal där jag fick reda på att nollan låg på låg höjd, ca 1000ft och att molntopparna låg på mellan 11000ft och 15000ft. Hon berättade också att uppklarnandet skulle ske lite senare än vad TAFen sa. Dit kommer jag att ringa fler gånger, helt klart!

Verkligheten blev att TAF stämde på minuten 🙂 Kl 14 sprack det upp…

1 kommentar

  1. Thanks, great article.

Kommentera

E-postadressen publiceras inte.

*

© 2019 Malmquist flyger

Tema av Anders NorenUpp ↑